TAF and METAR

No METAR available for Brest Airport

TAF for Brest Airport

TAF UMBB 231705Z 2318/2403 29005G10MPS 6000 BKN015 BKN020CB TEMPO 2318/2402 2100 -SHRA BR BKN005
Report created 23. jun 19:05

between 23. jun 20:00 - 24. jun 05:00

wind 10 knots from WNW (290°) with gusts up to 20 knots visibility 6000 meters broken clouds (~75% cover) at 1500 feet broken clouds (~75% cover) at 2000 feet of type cumulonimbus

temporarily between 23. jun 20:00 - 24. jun 04:00

visibility 2100 meters light rain showers mist broken clouds (~75% cover) at 500 feet